Time;durP1;ratioP1;P1;durP2;ratioP2;P2;SDS_P1;SDS_P2;PMS_P1;PMS_P2;Temp;Humidity;BMP_temperature;BMP_pressure;BME280_temperature;BME280_humidity;BME280_pressure;Samples;Min_cycle;Max_cycle;Signal;HPM_P1;HPM_P2
2022/07/07 00:02:43;;;;;;;1.73;1.60;;;21.90;20.70;;;;;;10431435;28;20237;-70
2022/07/07 00:07:46;;;;;;;1.70;1.60;;;21.80;20.70;;;;;;10434964;28;20858;-70
2022/07/07 00:12:50;;;;;;;1.80;1.60;;;21.60;20.70;;;;;;10434245;28;20221;-70
2022/07/07 00:17:55;;;;;;;2.47;1.87;;;21.50;20.80;;;;;;10436557;28;20229;-70
2022/07/07 00:22:58;;;;;;;1.60;1.50;;;21.40;20.90;;;;;;10432432;28;20233;-70
2022/07/07 00:28:01;;;;;;;1.87;1.60;;;21.30;20.90;;;;;;10426520;28;20225;-70
2022/07/07 00:33:06;;;;;;;1.80;1.70;;;21.30;21.10;;;;;;10430505;28;20221;-70
2022/07/07 00:38:09;;;;;;;1.83;1.33;;;21.30;21.20;;;;;;10430985;28;20831;-71
2022/07/07 00:43:12;;;;;;;3.10;1.80;;;21.20;21.10;;;;;;10435396;28;20972;-70
2022/07/07 00:48:18;;;;;;;1.67;1.57;;;21.20;21.20;;;;;;10431445;28;20244;-70
2022/07/07 00:53:21;;;;;;;2.30;1.60;;;21.10;21.40;;;;;;10432960;28;20239;-70
2022/07/07 00:58:25;;;;;;;1.87;1.57;;;21.00;21.30;;;;;;10431368;28;20243;-70
2022/07/07 01:03:30;;;;;;;3.17;1.60;;;21.00;21.40;;;;;;10432003;28;20231;-71
2022/07/07 01:08:35;;;;;;;3.13;1.50;;;21.00;21.70;;;;;;10431023;28;20275;-70
2022/07/07 01:13:40;;;;;;;1.50;1.40;;;21.00;21.50;;;;;;10433586;28;20596;-70
2022/07/07 01:18:45;;;;;;;3.83;1.80;;;20.90;21.60;;;;;;10433933;28;20228;-70
2022/07/07 01:23:50;;;;;;;1.70;1.60;;;21.00;21.80;;;;;;10431649;28;20221;-70
2022/07/07 01:28:53;;;;;;;2.20;1.70;;;20.90;21.80;;;;;;10428398;28;20250;-70
2022/07/07 01:33:56;;;;;;;2.37;1.80;;;20.90;21.90;;;;;;10431051;28;20229;-70
2022/07/07 01:39:00;;;;;;;3.90;1.70;;;20.80;21.80;;;;;;10431895;28;20249;-70
2022/07/07 01:44:04;;;;;;;2.13;1.63;;;20.80;22.10;;;;;;10428761;28;20221;-70
2022/07/07 01:49:07;;;;;;;3.30;1.60;;;20.70;22.00;;;;;;10433222;28;20580;-70
2022/07/07 01:54:12;;;;;;;1.93;1.60;;;20.60;22.00;;;;;;10441931;28;20221;-70
2022/07/07 01:59:15;;;;;;;1.90;1.70;;;20.50;22.20;;;;;;10438707;28;20791;-70
2022/07/07 02:04:18;;;;;;;1.97;1.87;;;20.50;22.10;;;;;;10439961;28;20223;-70
2022/07/07 02:09:23;;;;;;;2.80;2.00;;;20.40;22.20;;;;;;10433646;28;20244;-70
2022/07/07 02:14:26;;;;;;;2.40;1.90;;;20.40;22.50;;;;;;10438528;28;20229;-70
2022/07/07 02:19:30;;;;;;;2.07;1.97;;;20.40;22.50;;;;;;10440461;28;20307;-70
2022/07/07 02:24:34;;;;;;;2.60;1.93;;;20.30;22.50;;;;;;10438931;28;20229;-70
2022/07/07 02:29:37;;;;;;;1.70;1.60;;;20.20;22.80;;;;;;10437099;28;20225;-70
2022/07/07 02:34:41;;;;;;;2.00;1.87;;;20.10;22.60;;;;;;10436686;28;20243;-70
2022/07/07 02:39:45;;;;;;;2.47;1.87;;;20.10;22.70;;;;;;10434713;28;20240;-70
2022/07/07 02:44:48;;;;;;;2.87;1.90;;;20.00;22.90;;;;;;10439201;28;20224;-70
2022/07/07 02:49:51;;;;;;;2.23;1.90;;;19.90;22.80;;;;;;10438668;28;20705;-70
2022/07/07 02:54:56;;;;;;;2.43;2.23;;;19.80;22.90;;;;;;10436656;28;20240;-70
2022/07/07 03:00:00;;;;;;;4.00;1.90;;;19.80;23.40;;;;;;10434570;28;20313;-70
2022/07/07 03:05:03;;;;;;;3.60;2.07;;;19.60;23.10;;;;;;10437979;28;20229;-70
2022/07/07 03:10:10;;;;;;;2.67;2.30;;;19.50;23.30;;;;;;10436434;28;20720;-70
2022/07/07 03:15:15;;;;;;;2.60;2.00;;;19.40;23.70;;;;;;10429687;28;20228;-70
2022/07/07 03:20:20;;;;;;;3.43;2.00;;;19.20;23.60;;;;;;10433695;28;20221;-70
2022/07/07 03:25:25;;;;;;;2.10;1.93;;;19.10;23.80;;;;;;10433113;28;20637;-70
2022/07/07 03:30:28;;;;;;;2.87;2.10;;;19.00;24.30;;;;;;10431004;28;20234;-70
2022/07/07 03:35:31;;;;;;;2.17;2.07;;;19.00;24.20;;;;;;10436032;28;20274;-70
2022/07/07 03:40:36;;;;;;;3.87;2.20;;;18.90;24.90;;;;;;10429865;28;20271;-70
2022/07/07 03:45:40;;;;;;;2.30;2.10;;;18.90;24.60;;;;;;10432838;28;20274;-70
2022/07/07 03:50:44;;;;;;;1.97;1.80;;;18.90;24.60;;;;;;10431932;28;20275;-70
2022/07/07 03:55:48;;;;;;;2.27;1.97;;;18.90;24.60;;;;;;10433111;28;20270;-70
2022/07/07 04:00:52;;;;;;;2.10;1.90;;;19.00;24.60;;;;;;10428816;28;20290;-70
2022/07/07 04:05:55;;;;;;;3.07;2.10;;;19.00;24.60;;;;;;10427665;28;20708;-69
2022/07/07 04:10:59;;;;;;;2.37;2.17;;;19.00;24.60;;;;;;10430941;28;20334;-70
2022/07/07 04:16:03;;;;;;;2.07;1.97;;;19.10;24.70;;;;;;10426014;28;20784;-70
2022/07/07 04:21:06;;;;;;;2.87;2.10;;;19.10;24.70;;;;;;10431141;28;20248;-70
2022/07/07 04:26:11;;;;;;;2.13;1.87;;;19.30;24.80;;;;;;10431298;28;20217;-71
2022/07/07 04:31:14;;;;;;;3.17;2.03;;;19.30;24.80;;;;;;10428803;28;20654;-70
2022/07/07 04:36:18;;;;;;;1.90;1.80;;;19.40;24.90;;;;;;10430739;28;20267;-70
2022/07/07 04:41:22;;;;;;;2.43;2.03;;;19.40;24.80;;;;;;10431828;28;20237;-71
2022/07/07 04:46:26;;;;;;;2.50;2.30;;;19.40;24.90;;;;;;10433991;28;20341;-70
2022/07/07 04:51:29;;;;;;;1.90;1.80;;;19.50;25.00;;;;;;10431644;28;20229;-70
2022/07/07 04:56:34;;;;;;;3.20;2.17;;;19.50;25.00;;;;;;10429472;28;20228;-71
2022/07/07 05:01:37;;;;;;;3.00;1.97;;;19.50;25.00;;;;;;10429979;28;20704;-71
2022/07/07 05:06:40;;;;;;;2.17;1.90;;;19.50;25.00;;;;;;10431963;28;20231;-73
2022/07/07 05:11:45;;;;;;;2.10;1.90;;;19.50;25.00;;;;;;10426397;28;20227;-73
2022/07/07 05:16:54;;;;;;;2.13;1.93;;;19.50;25.00;;;;;;10421052;28;20225;-73
2022/07/07 05:21:57;;;;;;;2.30;2.10;;;19.50;25.00;;;;;;10425066;28;20233;-73
2022/07/07 05:27:02;;;;;;;3.37;2.10;;;19.60;25.00;;;;;;10434192;28;20702;-73
2022/07/07 05:32:06;;;;;;;2.83;2.10;;;19.70;25.10;;;;;;10429317;28;20218;-73
2022/07/07 05:37:09;;;;;;;2.40;2.10;;;19.70;25.10;;;;;;10424556;28;20226;-73
2022/07/07 05:42:14;;;;;;;3.20;1.97;;;19.80;25.20;;;;;;10433479;28;20221;-73
2022/07/07 05:47:17;;;;;;;1.87;1.77;;;19.90;25.30;;;;;;10434790;28;20697;-73
2022/07/07 05:52:20;;;;;;;2.63;1.83;;;19.90;25.30;;;;;;10440602;28;20225;-73
2022/07/07 05:57:25;;;;;;;2.30;2.10;;;20.00;25.30;;;;;;10429840;28;20228;-73
2022/07/07 06:02:28;;;;;;;3.37;2.40;;;20.00;25.30;;;;;;10432555;28;20239;-73
2022/07/07 06:07:31;;;;;;;2.30;1.87;;;20.00;25.30;;;;;;10431524;28;20229;-73
2022/07/07 06:12:36;;;;;;;3.00;1.93;;;20.00;25.30;;;;;;10432679;28;20572;-73
2022/07/07 06:17:39;;;;;;;2.57;1.90;;;20.00;25.30;;;;;;10431955;28;20233;-74
2022/07/07 06:23:03;;;;;;;2.37;2.10;;;20.00;25.30;;;;;;10431403;28;20213;-73
2022/07/07 06:28:07;;;;;;;4.43;2.30;;;20.10;25.40;;;;;;10432158;28;20233;-73
2022/07/07 06:33:10;;;;;;;3.57;1.97;;;20.10;25.40;;;;;;10429943;28;20235;-73
2022/07/07 06:38:14;;;;;;;2.73;2.17;;;20.00;25.30;;;;;;10429875;28;20221;-73
2022/07/07 06:43:18;;;;;;;3.13;1.80;;;20.00;25.30;;;;;;10440879;28;20241;-73
2022/07/07 06:48:21;;;;;;;2.60;2.00;;;20.00;25.60;;;;;;10436520;28;20240;-73
2022/07/07 06:53:25;;;;;;;2.03;1.93;;;20.00;25.40;;;;;;10436388;28;20241;-73
2022/07/07 06:58:30;;;;;;;2.23;1.93;;;20.10;25.90;;;;;;10441965;28;20255;-73
2022/07/07 07:03:33;;;;;;;2.17;1.70;;;20.10;25.60;;;;;;10441580;28;20232;-73
2022/07/07 07:08:38;;;;;;;2.00;1.80;;;20.20;25.40;;;;;;10431220;28;20582;-72
2022/07/07 07:13:42;;;;;;;2.80;2.03;;;20.20;25.50;;;;;;10441712;28;20225;-73
2022/07/07 07:18:46;;;;;;;2.33;2.00;;;20.20;25.50;;;;;;10435536;28;20221;-73
2022/07/07 07:23:49;;;;;;;2.87;2.10;;;20.20;25.70;;;;;;10441660;28;20244;-73
2022/07/07 07:28:54;;;;;;;6.30;5.20;;;20.20;25.90;;;;;;10442195;28;20862;-73
2022/07/07 07:33:57;;;;;;;11.97;8.93;;;20.30;26.20;;;;;;10436114;28;20725;-73
2022/07/07 07:39:01;;;;;;;4.10;3.70;;;20.40;25.80;;;;;;10431555;28;20217;-73
2022/07/07 07:44:06;;;;;;;5.20;2.70;;;20.50;26.10;;;;;;10432844;28;20240;-73
2022/07/07 07:49:09;;;;;;;4.47;4.13;;;20.70;26.00;;;;;;10439524;28;20239;-73
2022/07/07 07:54:12;;;;;;;3.47;3.17;;;20.90;26.20;;;;;;10430604;28;20221;-73
2022/07/07 07:59:17;;;;;;;3.67;3.37;;;21.20;26.10;;;;;;10438340;28;20232;-73
2022/07/07 08:04:20;;;;;;;2.60;2.30;;;21.30;26.20;;;;;;10434705;28;20229;-74
2022/07/07 08:09:24;;;;;;;3.07;2.67;;;21.50;26.10;;;;;;10429033;28;20229;-73
2022/07/07 08:14:28;;;;;;;2.37;2.17;;;21.60;25.90;;;;;;10435579;28;20231;-73
2022/07/07 08:19:31;;;;;;;2.10;1.90;;;21.70;26.10;;;;;;10429602;28;20934;-72
2022/07/07 08:24:35;;;;;;;1.70;1.60;;;21.80;26.00;;;;;;10430856;28;20229;-73
2022/07/07 08:29:39;;;;;;;2.57;1.60;;;21.90;25.40;;;;;;10433316;28;20240;-73
2022/07/07 08:34:43;;;;;;;1.63;1.40;;;21.90;25.20;;;;;;10432308;28;20574;-73
2022/07/07 08:39:46;;;;;;;1.57;1.47;;;22.00;25.30;;;;;;10431542;28;20610;-73
2022/07/07 08:44:51;;;;;;;2.73;1.47;;;22.00;25.10;;;;;;10432651;28;20231;-71
2022/07/07 08:49:54;;;;;;;2.00;1.47;;;22.00;24.80;;;;;;10428094;28;20603;-71
2022/07/07 08:54:58;;;;;;;4.23;1.63;;;22.00;25.00;;;;;;10435873;28;20232;-71
2022/07/07 09:00:03;;;;;;;2.67;1.70;;;22.00;25.40;;;;;;10433485;28;20228;-71
2022/07/07 09:05:07;;;;;;;1.93;1.57;;;22.10;25.20;;;;;;10433748;28;20240;-71
2022/07/07 09:10:10;;;;;;;1.37;1.33;;;22.20;25.20;;;;;;10434055;28;20683;-71
2022/07/07 09:15:15;;;;;;;3.10;1.50;;;22.20;25.10;;;;;;10431916;28;20225;-71
2022/07/07 09:20:18;;;;;;;1.90;1.40;;;22.30;24.90;;;;;;10433739;28;20235;-71
2022/07/07 09:25:23;;;;;;;2.10;1.53;;;22.30;24.90;;;;;;10431517;28;20237;-71
2022/07/07 09:30:33;;;;;;;3.43;1.60;;;22.30;25.60;;;;;;10429584;28;20233;-72
2022/07/07 09:41:03;;;;;;;2.63;2.17;;;22.20;26.30;;;;;;10429290;28;20618;-71
2022/07/07 09:46:11;;;;;;;2.47;2.27;;;22.10;26.70;;;;;;10434779;28;20588;-71
2022/07/07 09:51:17;;;;;;;1.57;1.47;;;21.90;26.60;;;;;;10432547;28;20282;-71
2022/07/07 09:56:22;;;;;;;1.73;1.50;;;21.70;26.50;;;;;;10429616;28;20227;-71
2022/07/07 10:01:28;;;;;;;2.50;1.63;;;21.60;26.70;;;;;;10431536;28;20238;-71
2022/07/07 10:06:33;;;;;;;2.87;1.47;;;21.50;27.50;;;;;;10428942;28;20229;-71
2022/07/07 10:11:39;;;;;;;1.93;1.70;;;21.40;27.20;;;;;;10434870;28;20233;-71
2022/07/07 10:16:45;;;;;;;3.83;1.50;;;21.30;27.50;;;;;;10439558;28;21017;-71
2022/07/07 10:21:50;;;;;;;2.37;1.60;;;21.40;27.70;;;;;;10428784;28;20225;-70
2022/07/07 10:26:55;;;;;;;1.93;1.80;;;21.40;27.80;;;;;;10435637;28;20221;-70
2022/07/07 10:31:59;;;;;;;2.20;1.50;;;21.50;28.00;;;;;;10426309;28;20229;-69
2022/07/07 10:37:05;;;;;;;2.30;1.60;;;21.50;28.20;;;;;;10423399;28;20221;-70
2022/07/07 10:42:25;;;;;;;1.97;1.53;;;21.60;28.10;;;;;;10425008;28;20233;-70
2022/07/07 10:47:33;;;;;;;2.03;1.53;;;21.60;29.10;;;;;;10424600;28;20256;-70
2022/07/07 10:52:42;;;;;;;2.97;1.77;;;21.50;29.10;;;;;;10427397;28;20323;-70
2022/07/07 10:58:05;;;;;;;2.67;1.53;;;21.50;29.10;;;;;;10427114;28;20231;-70
2022/07/07 11:03:13;;;;;;;2.17;1.70;;;21.40;28.30;;;;;;10430843;28;20241;-70
2022/07/07 11:08:17;;;;;;;1.73;1.63;;;21.40;29.70;;;;;;10432870;28;20237;-70
2022/07/07 11:13:32;;;;;;;1.63;1.53;;;21.40;29.00;;;;;;10425971;28;20881;-70
2022/07/07 11:18:37;;;;;;;3.03;1.90;;;21.50;30.00;;;;;;10424774;28;20226;-70
2022/07/07 11:23:48;;;;;;;2.00;1.90;;;21.50;29.70;;;;;;10430233;28;20237;-72
2022/07/07 11:28:52;;;;;;;1.90;1.80;;;21.50;30.10;;;;;;10416994;28;20255;-69
2022/07/07 11:33:58;;;;;;;2.93;2.10;;;21.60;29.30;;;;;;10413552;28;20624;-70
2022/07/07 11:39:03;;;;;;;3.43;1.80;;;21.60;30.00;;;;;;10415864;28;20236;-72
2022/07/07 11:44:06;;;;;;;2.17;1.87;;;21.70;29.70;;;;;;10421710;28;20480;-70
2022/07/07 11:49:17;;;;;;;3.60;2.00;;;21.60;29.30;;;;;;10418770;28;20235;-71
2022/07/07 11:54:20;;;;;;;2.03;1.90;;;21.60;30.00;;;;;;10414367;28;20225;-70
2022/07/07 11:59:23;;;;;;;2.63;1.97;;;21.50;29.60;;;;;;10420954;28;20236;-73
2022/07/07 12:04:28;;;;;;;2.50;2.10;;;21.50;29.80;;;;;;10415059;28;20240;-71
2022/07/07 12:09:32;;;;;;;3.00;2.07;;;21.50;30.90;;;;;;10416586;28;20237;-71
2022/07/07 12:14:35;;;;;;;2.23;1.93;;;21.50;30.00;;;;;;10419498;28;20720;-71
2022/07/07 12:19:48;;;;;;;3.03;2.10;;;21.50;30.10;;;;;;10414744;28;20233;-71
2022/07/07 12:25:00;;;;;;;2.20;1.87;;;21.40;32.50;;;;;;10414691;28;20931;-72
2022/07/07 12:30:25;;;;;;;2.67;1.97;;;21.40;32.10;;;;;;10420247;28;20235;-73
2022/07/07 12:35:32;;;;;;;3.73;2.47;;;21.40;31.10;;;;;;10422497;28;20232;-71
2022/07/07 12:40:40;;;;;;;2.70;2.23;;;21.50;32.30;;;;;;10412904;28;20232;-71
2022/07/07 12:45:45;;;;;;;2.33;2.13;;;21.40;31.60;;;;;;10417912;28;20229;-71
2022/07/07 12:50:50;;;;;;;2.30;2.10;;;21.50;31.50;;;;;;10417720;28;20240;-72
2022/07/07 12:55:53;;;;;;;2.90;2.60;;;21.60;32.30;;;;;;10415892;28;20255;-71
2022/07/07 13:00:59;;;;;;;3.73;2.30;;;21.70;32.50;;;;;;10414446;28;20221;-71
2022/07/07 13:06:06;;;;;;;2.47;2.00;;;21.90;32.30;;;;;;10413864;28;20224;-72
2022/07/07 13:11:10;;;;;;;2.50;2.30;;;22.00;32.60;;;;;;10415954;28;20582;-72
2022/07/07 13:16:13;;;;;;;2.63;2.30;;;22.20;31.10;;;;;;10421437;28;20231;-72
2022/07/07 13:21:18;;;;;;;2.77;2.53;;;22.40;31.10;;;;;;10430397;28;20693;-72
2022/07/07 13:26:21;;;;;;;5.13;2.57;;;22.50;31.10;;;;;;10427923;28;20251;-72
2022/07/07 13:31:24;;;;;;;3.10;2.10;;;22.60;31.20;;;;;;10432025;28;20283;-72
2022/07/07 13:36:29;;;;;;;3.00;2.70;;;22.70;31.10;;;;;;10425340;28;20235;-72
2022/07/07 13:41:32;;;;;;;2.30;2.10;;;22.70;31.30;;;;;;10433696;28;20732;-71
2022/07/07 13:46:37;;;;;;;2.50;2.30;;;22.70;31.60;;;;;;10439642;28;20244;-71
2022/07/07 13:51:41;;;;;;;2.03;1.93;;;22.80;31.30;;;;;;10442258;28;20236;-72
2022/07/07 13:56:45;;;;;;;1.87;1.77;;;22.80;31.20;;;;;;10438509;28;20217;-72
2022/07/07 14:01:48;;;;;;;2.53;2.00;;;22.80;31.30;;;;;;10442253;28;20719;-72
2022/07/07 14:06:53;;;;;;;2.00;1.90;;;22.90;31.70;;;;;;10440633;28;20252;-71
2022/07/07 14:11:56;;;;;;;1.93;1.73;;;23.00;31.80;;;;;;10435469;28;20221;-71
2022/07/07 14:16:59;;;;;;;2.10;2.00;;;23.00;31.20;;;;;;10443876;28;20233;-71
2022/07/07 14:22:05;;;;;;;1.80;1.70;;;23.10;31.20;;;;;;10445286;28;20220;-71
2022/07/07 14:27:08;;;;;;;2.37;1.97;;;23.10;31.60;;;;;;10436938;28;20313;-70
2022/07/07 14:32:11;;;;;;;2.40;2.20;;;23.00;31.50;;;;;;10439228;28;20233;-70
2022/07/07 14:37:16;;;;;;;2.10;2.00;;;23.00;32.10;;;;;;10435435;28;20590;-70
2022/07/07 14:42:20;;;;;;;1.93;1.80;;;22.90;32.60;;;;;;10439974;28;20239;-70
2022/07/07 14:47:24;;;;;;;2.50;1.80;;;22.90;32.40;;;;;;10435888;28;20347;-70
2022/07/07 14:52:29;;;;;;;2.00;1.90;;;22.80;32.50;;;;;;10440620;28;20228;-70
2022/07/07 14:57:32;;;;;;;1.90;1.80;;;22.70;33.40;;;;;;10431114;28;20226;-71
2022/07/07 15:02:35;;;;;;;2.17;1.80;;;22.70;33.10;;;;;;10436882;28;20233;-71
2022/07/07 15:07:42;;;;;;;2.13;1.97;;;22.60;33.10;;;;;;10434730;28;20236;-70
2022/07/07 15:12:49;;;;;;;2.40;2.20;;;22.60;34.00;;;;;;10432149;28;20235;-71
2022/07/07 15:17:53;;;;;;;2.03;1.83;;;22.60;33.40;;;;;;10429966;28;20295;-71
2022/07/07 15:22:57;;;;;;;2.33;2.13;;;22.60;33.40;;;;;;10434176;28;20221;-71
2022/07/07 15:28:00;;;;;;;3.13;1.80;;;22.60;34.60;;;;;;10426963;28;20229;-70
2022/07/07 15:33:05;;;;;;;2.77;2.00;;;22.50;34.10;;;;;;10435613;28;20228;-70
2022/07/07 15:38:10;;;;;;;2.60;2.20;;;22.40;34.70;;;;;;10431626;28;20244;-70
2022/07/07 15:43:14;;;;;;;2.00;1.90;;;22.20;35.70;;;;;;10431738;28;20228;-71
2022/07/07 15:48:17;;;;;;;1.93;1.80;;;22.20;34.70;;;;;;10429208;28;20231;-70
2022/07/07 15:53:22;;;;;;;1.83;1.73;;;22.10;34.70;;;;;;10434874;28;20229;-71
2022/07/07 15:58:25;;;;;;;2.33;1.80;;;22.10;35.60;;;;;;10435668;28;20225;-71
2022/07/07 16:03:29;;;;;;;2.23;2.03;;;22.00;35.00;;;;;;10433963;28;20252;-71
2022/07/07 16:08:34;;;;;;;1.90;1.80;;;22.00;35.10;;;;;;10434731;28;20744;-71
2022/07/07 16:13:38;;;;;;;2.43;2.23;;;22.00;36.00;;;;;;10432062;28;20236;-70
2022/07/07 16:18:41;;;;;;;2.70;2.30;;;22.00;36.00;;;;;;10429961;28;20228;-71
2022/07/07 16:23:46;;;;;;;2.67;2.37;;;21.90;35.70;;;;;;10437887;28;21029;-71
2022/07/07 16:28:49;;;;;;;2.53;2.33;;;21.90;36.60;;;;;;10426734;28;20225;-70
2022/07/07 16:33:52;;;;;;;2.50;2.30;;;21.90;36.00;;;;;;10435184;28;20237;-71
2022/07/07 16:38:57;;;;;;;3.23;3.00;;;21.90;36.00;;;;;;10429641;28;20249;-70
2022/07/07 16:44:01;;;;;;;2.73;2.53;;;21.80;37.20;;;;;;10432926;28;20588;-71
2022/07/07 16:49:04;;;;;;;2.87;2.60;;;21.60;36.10;;;;;;10432310;28;20221;-71
2022/07/07 16:54:09;;;;;;;3.00;2.77;;;21.40;36.80;;;;;;10430417;28;20217;-71
2022/07/07 16:59:12;;;;;;;2.40;2.23;;;21.30;37.60;;;;;;10427187;28;20260;-71
2022/07/07 17:04:15;;;;;;;2.50;2.30;;;21.10;37.10;;;;;;10434564;28;20787;-70
2022/07/07 17:09:20;;;;;;;2.30;2.20;;;21.10;37.50;;;;;;10434278;28;20229;-71
2022/07/07 17:14:23;;;;;;;2.30;2.20;;;21.00;37.40;;;;;;10433965;28;20266;-70
2022/07/07 17:19:26;;;;;;;2.77;1.87;;;21.00;37.40;;;;;;10430859;28;20233;-70
2022/07/07 17:24:31;;;;;;;2.30;2.20;;;21.00;37.40;;;;;;10431980;28;20233;-70
2022/07/07 17:29:34;;;;;;;2.10;2.00;;;21.00;37.80;;;;;;10429384;28;20233;-70
2022/07/07 17:34:38;;;;;;;2.10;2.00;;;21.00;37.40;;;;;;10432391;28;20225;-70
2022/07/07 17:39:42;;;;;;;2.20;2.10;;;20.90;37.30;;;;;;10434147;28;20229;-70
2022/07/07 17:44:46;;;;;;;1.90;1.80;;;20.90;38.00;;;;;;10429491;28;20262;-70
2022/07/07 17:49:49;;;;;;;1.90;1.80;;;20.90;37.30;;;;;;10430958;28;20239;-70
2022/07/07 17:54:54;;;;;;;1.93;1.83;;;20.90;37.30;;;;;;10431105;28;20725;-70
2022/07/07 17:59:57;;;;;;;1.80;1.70;;;21.00;38.20;;;;;;10433168;28;20232;-70
2022/07/07 18:05:05;;;;;;;1.77;1.67;;;21.00;37.40;;;;;;10428802;28;20224;-70
2022/07/07 18:10:10;;;;;;;1.67;1.57;;;21.00;37.40;;;;;;10428224;28;20232;-70
2022/07/07 18:15:13;;;;;;;1.90;1.80;;;21.00;38.10;;;;;;10427406;28;20232;-70
2022/07/07 18:20:16;;;;;;;2.87;1.70;;;21.00;37.40;;;;;;10418974;28;20229;-70
2022/07/07 18:25:21;;;;;;;2.00;1.80;;;21.00;37.40;;;;;;10416992;28;20224;-71
2022/07/07 18:30:25;;;;;;;2.30;2.10;;;21.00;38.30;;;;;;10419005;28;20252;-71
2022/07/07 18:35:28;;;;;;;2.60;2.40;;;21.00;37.40;;;;;;10424546;28;20228;-71
2022/07/07 18:40:37;;;;;;;2.90;2.70;;;21.00;37.40;;;;;;10439109;28;20279;-71
2022/07/07 18:45:40;;;;;;;2.10;2.00;;;20.90;38.10;;;;;;10439802;28;20332;-71
2022/07/07 18:50:45;;;;;;;2.63;2.43;;;20.80;37.60;;;;;;10436217;28;20221;-71
2022/07/07 18:55:49;;;;;;;2.77;2.57;;;20.70;38.50;;;;;;10437007;28;20232;-71
2022/07/07 19:00:54;;;;;;;2.50;2.30;;;20.70;38.50;;;;;;10438819;28;20744;-71
2022/07/07 19:05:58;;;;;;;2.33;2.13;;;20.60;37.90;;;;;;10424805;28;20889;-70
2022/07/07 19:11:02;;;;;;;1.97;1.87;;;20.60;38.00;;;;;;10418076;28;20236;-71
2022/07/07 19:16:06;;;;;;;1.90;1.80;;;20.60;38.60;;;;;;10418891;28;20221;-71
2022/07/07 19:21:09;;;;;;;1.90;1.80;;;20.60;38.30;;;;;;10426312;28;20235;-72
2022/07/07 19:26:14;;;;;;;1.90;1.80;;;20.50;37.90;;;;;;10418471;28;20229;-72
2022/07/07 19:31:18;;;;;;;2.23;1.90;;;20.50;38.70;;;;;;10414487;28;20221;-70
2022/07/07 19:36:22;;;;;;;2.13;1.83;;;20.60;38.20;;;;;;10422374;28;20244;-69
2022/07/07 19:41:27;;;;;;;1.87;1.77;;;20.60;38.30;;;;;;10419252;28;20232;-69
2022/07/07 19:46:30;;;;;;;2.30;2.10;;;20.60;38.80;;;;;;10418960;28;20996;-70
2022/07/07 19:51:39;;;;;;;2.30;2.20;;;20.60;38.30;;;;;;10414150;28;20240;-70
2022/07/07 19:56:44;;;;;;;2.17;2.03;;;20.60;38.10;;;;;;10416396;28;20229;-71
2022/07/07 20:01:47;;;;;;;1.80;1.70;;;20.60;38.80;;;;;;10429951;28;20247;-71
2022/07/07 20:06:50;;;;;;;2.30;2.10;;;20.60;38.40;;;;;;10433675;28;20253;-71
2022/07/07 20:11:55;;;;;;;2.37;2.20;;;20.60;38.60;;;;;;10435539;28;20881;-71
2022/07/07 20:16:59;;;;;;;2.13;2.00;;;20.60;39.00;;;;;;10437923;28;20243;-70
2022/07/07 20:22:02;;;;;;;2.57;2.37;;;20.50;38.40;;;;;;10431811;28;20244;-71
2022/07/07 20:27:06;;;;;;;2.60;2.40;;;20.50;38.80;;;;;;10428893;28;20236;-70
2022/07/07 20:32:10;;;;;;;2.10;2.00;;;20.40;39.30;;;;;;10433856;28;20300;-70
2022/07/07 20:37:14;;;;;;;2.37;2.27;;;20.30;39.00;;;;;;10435829;28;20705;-70
2022/07/07 20:42:19;;;;;;;2.30;2.10;;;20.20;38.90;;;;;;10435711;28;20701;-70
2022/07/07 20:47:28;;;;;;;2.10;2.00;;;20.10;39.80;;;;;;10435714;28;20312;-70
2022/07/07 20:52:32;;;;;;;2.07;1.97;;;20.00;39.30;;;;;;10435904;28;20233;-70
2022/07/07 20:57:37;;;;;;;2.03;1.93;;;20.00;39.40;;;;;;10434973;28;20265;-70
2022/07/07 21:02:40;;;;;;;2.00;1.90;;;20.00;40.00;;;;;;10434182;28;20229;-70
2022/07/07 21:07:43;;;;;;;3.83;1.90;;;19.90;39.50;;;;;;10437869;28;20323;-70
2022/07/07 21:12:47;;;;;;;2.00;1.90;;;19.80;39.50;;;;;;10433195;28;20244;-69
2022/07/07 21:17:52;;;;;;;1.73;1.63;;;19.80;40.40;;;;;;10431825;28;20227;-70
2022/07/07 21:22:56;;;;;;;2.30;2.10;;;19.70;39.90;;;;;;10436676;28;20774;-70
2022/07/07 21:28:01;;;;;;;2.20;1.70;;;19.80;39.80;;;;;;10430645;28;20235;-70
2022/07/07 21:33:04;;;;;;;2.33;2.07;;;19.90;40.30;;;;;;10437643;28;20244;-68
2022/07/07 21:38:07;;;;;;;2.03;1.83;;;19.90;39.80;;;;;;10429613;28;20935;-69
2022/07/07 21:43:11;;;;;;;1.90;1.80;;;20.00;39.80;;;;;;10430787;28;20597;-70
2022/07/07 21:48:15;;;;;;;1.67;1.57;;;19.90;40.20;;;;;;10432380;28;20622;-69
2022/07/07 21:53:18;;;;;;;1.70;1.60;;;20.00;39.70;;;;;;10430455;28;20235;-69
2022/07/07 21:58:23;;;;;;;2.00;1.80;;;19.90;39.50;;;;;;10431226;28;20229;-71
2022/07/07 22:08:44;;;;;;;2.67;1.80;;;20.00;39.60;;;;;;10441801;28;20224;-71
2022/07/07 22:13:48;;;;;;;3.10;1.57;;;20.00;39.70;;;;;;10436962;28;20566;-70
2022/07/07 22:18:51;;;;;;;1.80;1.70;;;20.00;40.10;;;;;;10438423;28;20257;-70
2022/07/07 22:23:55;;;;;;;2.33;1.60;;;20.00;39.70;;;;;;10442014;28;20739;-70
2022/07/07 22:28:59;;;;;;;2.73;1.80;;;19.90;39.60;;;;;;10439356;28;20234;-70
2022/07/07 22:34:03;;;;;;;1.53;1.50;;;19.90;40.00;;;;;;10434372;28;20221;-71
2022/07/07 22:39:07;;;;;;;1.60;1.50;;;19.90;39.80;;;;;;10435922;28;20716;-70
2022/07/07 22:44:11;;;;;;;1.60;1.50;;;19.90;39.70;;;;;;10439974;28;20221;-71
2022/07/07 22:49:14;;;;;;;2.00;1.40;;;19.90;40.20;;;;;;10435403;28;20236;-71
2022/07/07 22:54:18;;;;;;;1.50;1.40;;;19.80;39.60;;;;;;10436610;28;20221;-70
2022/07/07 22:59:22;;;;;;;1.73;1.63;;;19.80;39.80;;;;;;10440436;28;20980;-71
2022/07/07 23:04:25;;;;;;;2.10;1.60;;;19.80;40.40;;;;;;10436356;28;20233;-71
2022/07/07 23:09:29;;;;;;;1.43;1.33;;;19.80;40.10;;;;;;10437958;28;20233;-71
2022/07/07 23:14:33;;;;;;;1.60;1.40;;;19.90;40.10;;;;;;10441409;28;20232;-69
2022/07/07 23:19:36;;;;;;;1.53;1.43;;;19.90;40.60;;;;;;10434510;28;20240;-70
2022/07/07 23:24:40;;;;;;;2.00;1.40;;;19.90;40.10;;;;;;10439029;28;20760;-69
2022/07/07 23:29:44;;;;;;;1.80;1.47;;;19.90;40.10;;;;;;10428939;28;20244;-70
2022/07/07 23:34:47;;;;;;;1.60;1.50;;;19.90;40.40;;;;;;10436078;28;20567;-70
2022/07/07 23:39:50;;;;;;;1.80;1.70;;;19.90;40.00;;;;;;10437088;28;20630;-70
2022/07/07 23:44:55;;;;;;;1.83;1.60;;;19.80;39.90;;;;;;10438323;28;20229;-70
2022/07/07 23:49:58;;;;;;;2.10;2.00;;;19.70;40.40;;;;;;10436134;28;20233;-70
2022/07/07 23:55:02;;;;;;;2.40;1.90;;;19.60;40.20;;;;;;10435756;28;20229;-71
